Conway, SC

4:37 AM EDT on May 24, 2017 (GMT -0400)
Conway-Horry County

Weather History for KHYW - November, 2013

Change the Weather History Date:

Wednesday, November 27, 2013

  Actual Average Record
Temperature  
Mean Temperature 50 °F -  
Max Temperature 68 °F 67 °F 77 °F (2011)
Min Temperature 33 °F 42 °F 30 °F (2016)
Degree Days  
Heating Degree Days 14    
Moisture  
Dew Point 51 °F    
Average Humidity 97    
Maximum Humidity 100    
Minimum Humidity 75    
Precipitation  
Precipitation 0.16 in - - ()
Sea Level Pressure  
Sea Level Pressure 29.75 in    
Wind  
Wind Speed 6 mph (West)    
Max Wind Speed 10 mph    
Max Gust Speed 21 mph    
Visibility 7 miles    
Events Rain    
Averages and records for this station are not official NWS values.
T = Trace of Precipitation, MM = Missing Value Source: NWS Daily Summary

Daily Weather History Graph

Daily Weather History Graph

Search for Another Location

Airport or City:

Trip Planner

Search our weather history database for the weather conditions in past years. The results will help you decide how hot, cold, wet, or windy it might be!

Date:

Astronomy

Nov. 27, 2013 Rise Set
Actual Time 6:59 AM EST 5:08 PM EST
Civil Twilight 6:32 AM EST 5:35 PM EST
Nautical Twilight 6:02 AM EST 6:06 PM EST
Astronomical Twilight 5:32 AM EST 6:36 PM EST
Moon 1:15 AM EST (11/27) 1:30 PM EST (11/27)
Length of Visible Light 11h 02m
Length of Day
10h 08m
Waning Crescent, 32% of the Moon is Illuminated
Nov 27
Waning Crescent
Dec 2
New
Dec 9
First Quarter
Dec 17
Full
Dec 25
Last Quarter

Hourly Weather History & Observations

Time (EST) Temp. Windchill Dew Point Humidity Pressure Visibility Wind Dir Wind Speed Gust Speed Precip Events Conditions
12:15 AM 68.0 °F - 68.0 °F 100% 29.60 in 7.0 mi South 9.2 mph - N/A   Clear
12:35 AM 68.0 °F - 68.0 °F 100% 29.59 in 7.0 mi South 6.9 mph - N/A   Clear
12:55 AM 68.0 °F - 68.0 °F 100% 29.58 in 10.0 mi South 5.8 mph - N/A   Scattered Clouds
1:15 AM 66.2 °F - 66.2 °F 100% 29.59 in 10.0 mi South 5.8 mph - N/A   Mostly Cloudy
1:35 AM 68.0 °F - 68.0 °F 100% 29.60 in 7.0 mi South 10.4 mph - N/A   Mostly Cloudy
1:55 AM 68.0 °F - 68.0 °F 100% 29.58 in 7.0 mi South 10.4 mph - N/A   Mostly Cloudy
2:15 AM 68.0 °F - 68.0 °F 100% 29.57 in 7.0 mi South 8.1 mph - N/A   Overcast
2:35 AM 68.0 °F - 68.0 °F 100% 29.57 in 7.0 mi South 8.1 mph - N/A   Overcast
2:55 AM 68.0 °F - 68.0 °F 100% 29.56 in 10.0 mi South 6.9 mph - N/A Rain Rain
3:15 AM 68.0 °F - 68.0 °F 100% 29.56 in 7.0 mi South 5.8 mph - N/A Rain Light Rain
3:35 AM 68.0 °F - 68.0 °F 100% 29.55 in 7.0 mi South 9.2 mph - 0.01 in Rain Light Rain
3:55 AM 66.2 °F - 66.2 °F 100% 29.53 in 7.0 mi South 8.1 mph - 0.02 in   Overcast
4:15 AM 66.2 °F - 66.2 °F 100% 29.52 in 10.0 mi South 6.9 mph - N/A Rain Light Rain
4:35 AM 66.2 °F - 66.2 °F 100% 29.52 in 7.0 mi SSE 6.9 mph - 0.01 in Rain Light Rain
4:55 AM 66.2 °F - 66.2 °F 100% 29.51 in 7.0 mi South 9.2 mph - 0.01 in   Overcast
5:15 AM 66.2 °F - 66.2 °F 100% 29.51 in 5.0 mi South 10.4 mph - N/A   Overcast
5:35 AM 66.2 °F - 66.2 °F 100% 29.50 in 7.0 mi South 8.1 mph - N/A   Overcast
5:55 AM 66.2 °F - 66.2 °F 100% 29.50 in 7.0 mi South 8.1 mph - N/A   Overcast
6:15 AM 66.2 °F - 66.2 °F 100% 29.49 in 7.0 mi SSW 6.9 mph - N/A   Overcast
6:35 AM 66.2 °F - 66.2 °F 100% 29.49 in 7.0 mi West 3.5 mph - N/A   Overcast
6:55 AM 64.4 °F - 64.4 °F 100% 29.50 in 7.0 mi West 5.8 mph - N/A   Overcast
7:15 AM 64.4 °F - 64.4 °F 100% 29.50 in 7.0 mi West 3.5 mph - N/A   Overcast
7:35 AM 62.6 °F - 62.6 °F 100% 29.52 in 10.0 mi West 5.8 mph - N/A Rain Rain
7:55 AM 62.6 °F - 62.6 °F 100% 29.52 in 7.0 mi WSW 6.9 mph - N/A Rain Rain
8:15 AM 60.8 °F - 60.8 °F 100% 29.52 in 10.0 mi West 3.5 mph - 0.01 in Rain Rain
8:35 AM 60.8 °F - 60.8 °F 100% 29.51 in 10.0 mi WSW 3.5 mph - 0.03 in Rain Light Rain
8:55 AM 60.8 °F - 60.8 °F 100% 29.52 in 5.0 mi WSW 4.6 mph - 0.07 in Rain Heavy Rain
9:15 AM 60.8 °F - 60.8 °F 100% 29.52 in 7.0 mi WNW 3.5 mph - 0.01 in Rain Light Rain
9:35 AM 60.8 °F - 60.8 °F 100% 29.53 in 10.0 mi West 5.8 mph - 0.03 in Rain Light Rain
9:55 AM 55.4 °F - 55.4 °F 100% 29.55 in 7.0 mi NW 5.8 mph - 0.05 in Rain Light Rain
10:15 AM 53.6 °F - 53.6 °F 100% 29.57 in 7.0 mi WNW 4.6 mph - 0.01 in   Overcast
10:35 AM 53.6 °F - 53.6 °F 100% 29.60 in 2.0 mi West 4.6 mph - 0.01 in Rain Light Rain
10:55 AM 51.8 °F - 51.8 °F 100% 29.61 in 4.0 mi West 3.5 mph - 0.01 in   Overcast
11:15 AM 51.8 °F - 51.8 °F 100% 29.61 in 4.0 mi NW 6.9 mph - N/A Rain Light Rain
11:35 AM 50.0 °F - 50.0 °F 100% 29.63 in 3.0 mi West 5.8 mph - N/A Rain Rain
11:55 AM 50.0 °F - 50.0 °F 100% 29.63 in 3.0 mi WNW 5.8 mph - N/A Rain Rain
12:15 PM 50.0 °F - 50.0 °F 100% 29.63 in 2.5 mi WNW 5.8 mph 17.3 mph N/A Rain Rain
12:35 PM 46.4 °F 41.5 °F 46.4 °F 100% 29.65 in 3.0 mi West 10.4 mph 16.1 mph N/A Rain Light Rain
12:55 PM 44.6 °F 40.7 °F 44.6 °F 100% 29.67 in 5.0 mi NW 6.9 mph 16.1 mph N/A   Overcast
1:15 PM 44.6 °F 42.2 °F 44.6 °F 100% 29.69 in 7.0 mi WNW 4.6 mph - N/A   Overcast
1:35 PM 44.6 °F 40.7 °F 44.6 °F 100% 29.69 in 5.0 mi NW 6.9 mph - N/A   Overcast
1:55 PM 44.6 °F 40.2 °F 42.8 °F 93% 29.71 in 7.0 mi NW 8.1 mph 20.7 mph N/A   Overcast
2:15 PM 44.6 °F 40.2 °F 42.8 °F 93% 29.73 in 7.0 mi NW 8.1 mph - N/A   Overcast
2:35 PM 44.6 °F 42.2 °F 42.8 °F 93% 29.76 in 7.0 mi NW 4.6 mph - N/A   Overcast
2:55 PM 44.6 °F 41.4 °F 42.8 °F 93% 29.78 in 5.0 mi NNW 5.8 mph - N/A   Overcast
3:15 PM 44.6 °F 42.2 °F 42.8 °F 93% 29.80 in 5.0 mi NW 4.6 mph - N/A   Overcast
3:35 PM 42.8 °F 41.1 °F 42.8 °F 100% 29.83 in 5.0 mi WNW 3.5 mph - N/A   Light Drizzle
3:55 PM 42.8 °F 38.0 °F 42.8 °F 100% 29.85 in 5.0 mi NW 8.1 mph - N/A   Overcast
4:15 PM 42.8 °F 40.1 °F 41.0 °F 93% 29.86 in 5.0 mi NNW 4.6 mph - N/A   Overcast
4:35 PM 41.0 °F 36.4 °F 41.0 °F 100% 29.88 in 7.0 mi NW 6.9 mph - N/A   Light Drizzle
4:55 PM 41.0 °F 36.4 °F 39.2 °F 93% 29.90 in 7.0 mi NW 6.9 mph 16.1 mph N/A   Overcast
5:15 PM 41.0 °F 36.4 °F 39.2 °F 93% 29.91 in 5.0 mi NW 6.9 mph - N/A   Mostly Cloudy
5:35 PM 41.0 °F 39.0 °F 39.2 °F 93% 29.92 in 7.0 mi WNW 3.5 mph - N/A   Mostly Cloudy
5:55 PM 41.0 °F 38.0 °F 39.2 °F 93% 29.94 in 7.0 mi West 4.6 mph - N/A   Overcast
6:15 PM 41.0 °F 37.1 °F 39.2 °F 93% 29.96 in 10.0 mi NW 5.8 mph - N/A   Mostly Cloudy
6:35 PM 41.0 °F 39.0 °F 37.4 °F 87% 29.99 in 7.0 mi WNW 3.5 mph - N/A   Clear
6:55 PM 39.2 °F - 37.4 °F 93% 30.01 in 10.0 mi Calm Calm - N/A   Scattered Clouds
7:15 PM 39.2 °F - 39.2 °F 100% 30.02 in 7.0 mi Calm Calm - N/A   Mostly Cloudy
7:35 PM 37.4 °F - 37.4 °F 100% 30.04 in 7.0 mi Calm Calm - N/A   Scattered Clouds
7:55 PM 37.4 °F - 37.4 °F 100% 30.05 in 7.0 mi Calm Calm - N/A   Scattered Clouds
8:15 PM 35.6 °F - 35.6 °F 100% 30.07 in 7.0 mi Calm Calm - N/A   Scattered Clouds
8:35 PM 35.6 °F - 35.6 °F 100% 30.08 in 5.0 mi Calm Calm - N/A   Scattered Clouds
8:55 PM 35.6 °F - 35.6 °F 100% 30.09 in 7.0 mi Calm Calm - N/A   Clear
9:15 PM 35.6 °F 32.8 °F 35.6 °F 100% 30.11 in 7.0 mi NW 3.5 mph - N/A   Clear
9:35 PM 37.4 °F - 37.4 °F 100% 30.12 in 7.0 mi Calm Calm - N/A   Clear
9:55 PM 35.6 °F 32.8 °F 35.6 °F 100% 30.14 in 7.0 mi WNW 3.5 mph - N/A   Clear
10:15 PM 35.6 °F 31.7 °F 32.0 °F 87% 30.15 in 7.0 mi WNW 4.6 mph - N/A   Clear
10:35 PM 35.6 °F 31.7 °F 32.0 °F 87% 30.17 in 7.0 mi NW 4.6 mph - N/A   Clear
10:55 PM 35.6 °F - 28.4 °F 75% 30.17 in 7.0 mi Calm Calm - N/A   Clear
11:15 PM 33.8 °F - 28.4 °F 81% 30.18 in 7.0 mi Calm Calm - N/A   Clear
11:35 PM 33.8 °F - 28.4 °F 81% 30.20 in 7.0 mi Calm Calm - N/A   Clear
11:55 PM 33.8 °F 30.8 °F 26.6 °F 75% 30.21 in 7.0 mi NW 3.5 mph - N/A   Clear